Terminal Aerodrome Forecast
Issued by NWS

Home | Current Version | Previous Version | Text Only | Print | Product List | Glossary On
Versions: 1 2 3 4 5 6 7 8 9 10 11 12 13 14 15 16
786
FTUS42 KFFC 240803 AAA
TAFRYY
TAF AMD
KRYY 240803Z 2408/2506 11006KT P6SM SCT025 OVC035
     FM241000 11006KT P6SM OVC020
     FM241500 13009KT P6SM BKN040
     FM241800 13010KT P6SM BKN050
     FM242200 13006KT P6SM SCT050 BKN120
      AMD NOT SKED TIL 241200=

USA.gov is the U.S. government's official web portal to all federal, state and local government web resources and services.